createdAt,value
2023-05-26T00:01:58.277Z,16.15
2023-05-26T00:04:27.755Z,16.10
2023-05-26T00:06:55.713Z,16.02
2023-05-26T00:09:25.300Z,15.96
2023-05-26T00:11:54.195Z,15.92
2023-05-26T00:14:21.988Z,15.93
2023-05-26T00:16:50.040Z,16.00
2023-05-26T00:19:21.493Z,16.10
2023-05-26T00:23:15.223Z,16.20
2023-05-26T00:25:45.304Z,16.17
2023-05-26T00:28:13.446Z,16.13
2023-05-26T00:30:41.339Z,16.08
2023-05-26T00:33:12.588Z,15.99
2023-05-26T00:35:40.555Z,15.93
2023-05-26T00:38:09.065Z,15.92
2023-05-26T00:40:37.945Z,15.91
2023-05-26T00:43:05.995Z,15.85
2023-05-26T00:45:34.813Z,15.79
2023-05-26T00:48:05.971Z,15.73
2023-05-26T00:50:34.589Z,15.68
2023-05-26T00:53:02.610Z,15.63
2023-05-26T00:55:30.574Z,15.61
2023-05-26T00:57:58.477Z,15.63
2023-05-26T01:00:27.387Z,15.63
2023-05-26T01:02:57.366Z,15.57
2023-05-26T01:05:27.374Z,15.51
2023-05-26T01:07:56.800Z,15.44
2023-05-26T01:10:24.644Z,15.38
2023-05-26T01:12:59.700Z,15.38
2023-05-26T01:15:31.415Z,15.40
2023-05-26T01:18:07.602Z,15.41
2023-05-26T01:20:39.891Z,15.37
2023-05-26T01:23:21.137Z,15.27
2023-05-26T01:26:28.561Z,15.15
2023-05-26T01:29:01.803Z,15.02
2023-05-26T01:31:41.609Z,14.99
2023-05-26T01:34:09.513Z,14.96
2023-05-26T01:36:37.480Z,14.90
2023-05-26T01:39:11.273Z,14.83
2023-05-26T01:42:31.065Z,14.74
2023-05-26T01:45:20.095Z,14.64
2023-05-26T01:47:51.411Z,14.61
2023-05-26T01:50:21.153Z,14.60
2023-05-26T01:52:52.572Z,14.57
2023-05-26T01:55:21.358Z,14.50
2023-05-26T01:57:49.054Z,14.44
2023-05-26T02:00:25.193Z,14.37
2023-05-26T02:02:53.181Z,14.32
2023-05-26T02:05:21.000Z,14.28
2023-05-26T02:07:49.797Z,14.25
2023-05-26T02:10:17.640Z,14.20
2023-05-26T02:12:45.222Z,14.13
2023-05-26T02:15:13.500Z,14.08
2023-05-26T02:17:47.046Z,14.04
2023-05-26T02:20:20.088Z,14.05
2023-05-26T02:22:47.978Z,14.04
2023-05-26T02:25:17.282Z,14.00
2023-05-26T02:27:48.790Z,13.91
2023-05-26T02:30:17.222Z,13.87
2023-05-26T02:32:45.483Z,13.87
2023-05-26T02:35:15.265Z,13.89
2023-05-26T02:37:45.574Z,13.93
2023-05-26T02:40:13.958Z,13.97
2023-05-26T02:42:41.616Z,13.97
2023-05-26T02:45:10.044Z,13.97
2023-05-26T02:47:38.885Z,13.96
2023-05-26T02:50:07.455Z,13.99
2023-05-26T02:52:35.315Z,14.06
2023-05-26T02:55:05.398Z,14.12
2023-05-26T02:57:33.302Z,14.16
2023-05-26T03:00:02.613Z,14.22
2023-05-26T03:02:30.895Z,14.31
2023-05-26T03:04:58.853Z,14.44
2023-05-26T03:07:26.615Z,14.58
2023-05-26T03:09:56.656Z,14.65
2023-05-26T03:12:24.397Z,14.71
2023-05-26T03:14:53.082Z,14.76
2023-05-26T03:17:21.331Z,14.84
2023-05-26T03:19:49.345Z,14.94
2023-05-26T03:25:15.681Z,15.19
2023-05-26T03:27:47.686Z,15.30
2023-05-26T03:30:16.341Z,15.39
2023-05-26T03:32:45.352Z,15.49
2023-05-26T03:35:13.404Z,15.63
2023-05-26T03:37:43.822Z,15.77
2023-05-26T03:40:12.318Z,15.91
2023-05-26T03:42:41.373Z,16.04
2023-05-26T03:45:15.131Z,16.15
2023-05-26T03:50:35.417Z,16.61
2023-05-26T03:53:04.520Z,16.90
2023-05-26T03:55:37.353Z,17.16
2023-05-26T03:58:07.064Z,17.42
2023-05-26T04:00:34.871Z,17.65
2023-05-26T04:03:02.956Z,17.89
2023-05-26T04:05:31.525Z,18.14
2023-05-26T04:07:59.598Z,18.38
2023-05-26T04:10:28.389Z,18.58
2023-05-26T04:12:56.568Z,18.76
2023-05-26T04:15:24.533Z,18.90
2023-05-26T04:17:53.276Z,19.02
2023-05-26T04:20:22.255Z,19.12
2023-05-26T04:22:50.690Z,19.22
2023-05-26T04:25:19.583Z,19.36
2023-05-26T04:27:58.209Z,19.51
2023-05-26T04:30:46.149Z,19.68
2023-05-26T04:33:23.708Z,19.74
2023-05-26T04:36:10.395Z,19.77
2023-05-26T04:38:42.777Z,19.84
2023-05-26T04:41:10.567Z,19.95
2023-05-26T04:43:40.761Z,20.04
2023-05-26T04:46:12.195Z,20.15
2023-05-26T04:48:40.178Z,20.23
2023-05-26T04:51:09.804Z,20.28
2023-05-26T04:53:37.719Z,20.35
2023-05-26T04:56:07.666Z,20.42
2023-05-26T04:58:41.177Z,20.45
2023-05-26T05:01:11.172Z,20.46
2023-05-26T05:04:00.659Z,20.52
2023-05-26T05:06:31.109Z,20.60
2023-05-26T05:08:59.026Z,20.63
2023-05-26T05:11:27.453Z,20.65
2023-05-26T05:13:55.511Z,20.66
2023-05-26T05:16:23.718Z,20.72
2023-05-26T05:18:52.169Z,20.79
2023-05-26T05:21:23.415Z,20.85
2023-05-26T05:23:57.426Z,20.94
2023-05-26T05:26:26.859Z,21.04
2023-05-26T05:28:54.700Z,21.06
2023-05-26T05:31:42.854Z,21.09
2023-05-26T05:34:10.909Z,21.10
2023-05-26T05:36:39.297Z,21.09
2023-05-26T05:39:08.699Z,21.11
2023-05-26T05:41:36.979Z,21.16
2023-05-26T05:44:05.264Z,21.17
2023-05-26T05:46:36.894Z,21.21
2023-05-26T05:49:21.203Z,21.25
2023-05-26T05:51:53.386Z,21.28
2023-05-26T05:54:21.252Z,21.32
2023-05-26T05:56:49.315Z,21.35
2023-05-26T05:59:21.254Z,21.37
2023-05-26T06:01:49.254Z,21.42
2023-05-26T06:04:17.161Z,21.47
2023-05-26T06:06:47.608Z,21.47
2023-05-26T06:09:15.256Z,21.48
2023-05-26T06:11:45.180Z,21.52
2023-05-26T06:14:14.453Z,21.56
2023-05-26T06:16:42.210Z,21.62
2023-05-26T06:19:10.105Z,21.70
2023-05-26T06:21:42.528Z,21.75
2023-05-26T06:24:11.377Z,21.81
2023-05-26T06:26:40.486Z,21.89
2023-05-26T06:29:09.006Z,21.97
2023-05-26T06:31:41.215Z,22.06
2023-05-26T06:34:15.803Z,22.10
2023-05-26T06:36:44.963Z,22.15
2023-05-26T06:39:14.215Z,22.26
2023-05-26T06:41:42.777Z,22.35
2023-05-26T06:44:10.541Z,22.44
2023-05-26T06:46:38.620Z,22.48
2023-05-26T06:49:06.915Z,22.52
2023-05-26T06:51:47.663Z,22.57
2023-05-26T06:54:16.362Z,22.64
2023-05-26T06:56:44.185Z,22.74
2023-05-26T06:59:12.759Z,22.80
2023-05-26T07:01:41.765Z,22.84
2023-05-26T07:04:09.679Z,22.86
2023-05-26T07:06:46.472Z,22.86
2023-05-26T07:09:19.831Z,22.84
2023-05-26T07:12:04.000Z,22.86
2023-05-26T07:15:12.088Z,22.94
2023-05-26T07:17:44.742Z,23.02
2023-05-26T07:20:15.071Z,23.11
2023-05-26T07:22:42.881Z,23.21
2023-05-26T07:25:18.234Z,23.26
2023-05-26T07:27:48.077Z,23.30
2023-05-26T07:30:16.542Z,23.38
2023-05-26T07:33:17.326Z,23.52
2023-05-26T07:35:45.445Z,23.65
2023-05-26T07:38:13.828Z,23.76
2023-05-26T07:40:45.465Z,23.93
2023-05-26T07:43:16.079Z,24.10
2023-05-26T07:45:44.064Z,24.32
2023-05-26T07:48:12.072Z,24.53
2023-05-26T07:50:39.914Z,24.75
2023-05-26T07:53:07.776Z,24.96
2023-05-26T07:55:35.546Z,25.20
2023-05-26T07:58:03.400Z,25.47
2023-05-26T08:00:32.295Z,25.66
2023-05-26T08:03:00.478Z,25.82
2023-05-26T08:05:28.437Z,25.98
2023-05-26T08:07:56.613Z,26.13
2023-05-26T08:10:25.234Z,26.20
2023-05-26T08:12:54.189Z,26.34
2023-05-26T08:15:28.097Z,26.52
2023-05-26T08:17:56.044Z,26.71
2023-05-26T08:20:26.579Z,26.90
2023-05-26T08:22:55.865Z,27.10
2023-05-26T08:25:24.546Z,27.29
2023-05-26T08:27:52.526Z,27.45
2023-05-26T08:30:21.058Z,27.61
2023-05-26T12:42:09.520Z,34.21
2023-05-26T12:44:39.186Z,34.42
2023-05-26T12:47:07.337Z,34.73
2023-05-26T12:49:35.037Z,34.91
2023-05-26T12:52:02.773Z,35.04
2023-05-26T12:54:31.047Z,35.04
2023-05-26T12:56:58.879Z,34.94
2023-05-26T12:59:26.862Z,34.86
2023-05-26T13:01:59.125Z,34.97
2023-05-26T13:04:27.833Z,35.08
2023-05-26T13:06:58.468Z,35.25
